createdAt,value
2019-04-07T03:02:33.310Z,10.20
2019-04-07T03:05:22.209Z,10.20
2019-04-07T03:07:56.435Z,10.20
2019-04-07T03:10:31.107Z,10.20
2019-04-07T03:13:18.531Z,10.20
2019-04-07T03:16:02.104Z,10.20
2019-04-07T03:18:44.888Z,10.20
2019-04-07T03:21:15.834Z,10.20
2019-04-07T03:24:02.197Z,10.20
2019-04-07T03:26:42.527Z,10.20
2019-04-07T03:29:16.321Z,10.20
2019-04-07T03:31:49.197Z,10.20
2019-04-07T03:34:24.062Z,10.10
2019-04-07T03:37:22.930Z,10.10
2019-04-07T03:39:49.271Z,10.00
2019-04-07T03:42:21.323Z,10.00
2019-04-07T03:44:53.263Z,10.00
2019-04-07T03:47:24.346Z,9.90
2019-04-07T03:50:07.543Z,9.90
2019-04-07T03:52:41.464Z,9.90
2019-04-07T03:55:13.139Z,9.90
2019-04-07T03:57:47.848Z,9.90
2019-04-07T04:00:57.527Z,9.90
2019-04-07T04:03:46.018Z,9.70
2019-04-07T04:06:17.439Z,9.70
2019-04-07T04:08:51.123Z,9.50
2019-04-07T04:11:22.180Z,9.40
2019-04-07T04:13:53.124Z,9.40
2019-04-07T04:16:23.948Z,9.40
2019-04-07T04:18:53.453Z,9.30
2019-04-07T04:21:24.310Z,9.30
2019-04-07T04:23:53.638Z,9.30
2019-04-07T04:26:23.757Z,9.30
2019-04-07T04:28:53.238Z,9.20
2019-04-07T04:31:22.619Z,9.10
2019-04-07T04:33:51.887Z,9.00
2019-04-07T04:36:22.066Z,8.90
2019-04-07T04:38:52.842Z,8.80
2019-04-07T04:41:23.164Z,8.70
2019-04-07T04:43:53.506Z,8.60
2019-04-07T04:46:23.795Z,8.70
2019-04-07T04:48:55.497Z,8.70
2019-04-07T04:51:26.023Z,8.70
2019-04-07T04:53:56.416Z,8.70
2019-04-07T04:56:27.011Z,8.70
2019-04-07T04:58:56.599Z,8.70
2019-04-07T05:01:26.571Z,8.70
2019-04-07T05:03:55.918Z,8.70
2019-04-07T05:06:25.361Z,8.70
2019-04-07T05:08:54.731Z,8.70
2019-04-07T05:11:23.994Z,8.70
2019-04-07T05:13:53.257Z,8.80
2019-04-07T05:16:23.079Z,8.80
2019-04-07T05:18:52.906Z,8.90
2019-04-07T05:21:22.345Z,9.00
2019-04-07T05:23:51.655Z,9.10
2019-04-07T05:26:21.154Z,9.10
2019-04-07T05:28:50.690Z,9.20
2019-04-07T05:31:23.205Z,9.30
2019-04-07T05:33:52.595Z,9.40
2019-04-07T05:36:22.359Z,9.40
2019-04-07T05:38:52.109Z,9.40
2019-04-07T05:41:21.858Z,9.50
2019-04-07T05:43:51.194Z,9.50
2019-04-07T05:46:20.465Z,9.60
2019-04-07T05:48:51.018Z,9.60
2019-04-07T05:51:22.084Z,9.60
2019-04-07T05:53:51.669Z,9.60
2019-04-07T05:56:21.410Z,9.60
2019-04-07T05:58:50.855Z,9.60
2019-04-07T06:01:23.435Z,9.60
2019-04-07T06:03:51.271Z,9.50
2019-04-07T06:06:21.362Z,9.60
2019-04-07T06:08:51.792Z,9.60
2019-04-07T06:11:21.637Z,9.70
2019-04-07T06:13:51.943Z,9.70
2019-04-07T06:16:22.456Z,9.90
2019-04-07T06:18:52.336Z,10.00
2019-04-07T06:21:22.218Z,10.20
2019-04-07T06:23:55.358Z,10.30
2019-04-07T06:26:23.523Z,10.50
2019-04-07T06:28:57.699Z,10.60
2019-04-07T06:31:26.316Z,10.70
2019-04-07T06:33:56.755Z,10.80
2019-04-07T06:36:26.859Z,11.00
2019-04-07T06:38:56.374Z,11.10
2019-04-07T06:41:30.079Z,11.20
2019-04-07T06:44:08.732Z,11.20
2019-04-07T06:46:33.159Z,11.40
2019-04-07T06:49:04.297Z,11.50
2019-04-07T06:51:38.937Z,11.60
2019-04-07T06:54:21.626Z,11.70
2019-04-07T06:56:49.035Z,11.80
2019-04-07T06:59:22.956Z,11.90
2019-04-07T07:01:59.119Z,12.00
2019-04-07T07:04:32.770Z,12.10
2019-04-07T07:07:06.178Z,12.30
2019-04-07T07:09:40.463Z,12.30
2019-04-07T07:12:22.493Z,12.50
2019-04-07T07:15:06.234Z,12.50
2019-04-07T07:17:54.907Z,12.60
2019-04-07T07:20:41.547Z,12.70
2019-04-07T07:23:15.750Z,12.80
2019-04-07T07:25:45.432Z,12.90
2019-04-07T07:28:14.804Z,13.00
2019-04-07T07:30:45.275Z,13.00
2019-04-07T07:33:14.837Z,13.10
2019-04-07T07:35:48.779Z,13.20
2019-04-07T07:38:15.279Z,13.20
2019-04-07T07:40:47.746Z,13.40
2019-04-07T07:43:16.077Z,13.50
2019-04-07T07:45:48.282Z,13.60
2019-04-07T07:48:17.531Z,13.70
2019-04-07T07:50:47.823Z,13.80
2019-04-07T07:53:19.179Z,13.90
2019-04-07T07:55:49.016Z,14.00
2019-04-07T07:58:19.422Z,14.00
2019-04-07T08:00:48.843Z,14.00
2019-04-07T08:03:20.874Z,14.10
2019-04-07T08:05:49.320Z,14.20
2019-04-07T08:08:20.046Z,14.30
2019-04-07T08:10:49.422Z,14.40
2019-04-07T08:13:19.036Z,14.40
2019-04-07T08:15:48.282Z,14.50
2019-04-07T08:18:19.821Z,14.50
2019-04-07T08:20:49.067Z,14.60
2019-04-07T08:23:18.737Z,14.60
2019-04-07T08:25:48.870Z,14.60
2019-04-07T08:28:20.355Z,14.60
2019-04-07T08:30:50.190Z,14.70
2019-04-07T08:33:20.219Z,14.70
2019-04-07T08:35:50.218Z,14.70
2019-04-07T08:38:22.487Z,14.70
2019-04-07T08:40:52.040Z,14.70
2019-04-07T08:43:23.417Z,14.80
2019-04-07T08:45:53.710Z,14.80
2019-04-07T08:48:23.063Z,15.00
2019-04-07T08:50:52.839Z,15.10
2019-04-07T08:53:22.901Z,15.30
2019-04-07T08:55:54.764Z,15.40
2019-04-07T08:58:27.291Z,15.60
2019-04-07T09:00:56.350Z,15.70
2019-04-07T09:03:25.618Z,15.80
2019-04-07T09:05:57.410Z,15.90
2019-04-07T09:08:26.242Z,16.00
2019-04-07T09:11:10.051Z,16.10
2019-04-07T09:13:41.324Z,16.20
2019-04-07T09:16:15.109Z,16.20
2019-04-07T09:19:03.787Z,16.20
2019-04-07T09:21:51.627Z,16.30
2019-04-07T09:24:37.074Z,16.40
2019-04-07T09:27:24.675Z,16.50
2019-04-07T09:29:58.937Z,16.60
2019-04-07T09:32:46.144Z,16.70
2019-04-07T09:35:17.728Z,16.70
2019-04-07T09:37:54.093Z,16.70
2019-04-07T09:40:42.223Z,16.60
2019-04-07T09:43:30.588Z,16.70
2019-04-07T09:46:17.996Z,16.80
2019-04-07T09:49:05.578Z,16.90
2019-04-07T09:51:42.875Z,16.90
2019-04-07T09:54:14.903Z,16.80
2019-04-07T09:57:04.475Z,16.80
2019-04-07T09:59:33.943Z,17.00
2019-04-07T10:02:11.389Z,17.10
2019-04-07T10:04:42.701Z,17.20
2019-04-07T10:07:16.233Z,17.30
2019-04-07T10:10:04.572Z,17.40
2019-04-07T10:12:33.497Z,17.50
2019-04-07T10:15:12.079Z,17.50
2019-04-07T10:17:45.712Z,17.50
2019-04-07T10:20:16.662Z,17.50
2019-04-07T10:22:48.377Z,17.60
2019-04-07T10:25:36.447Z,17.60
2019-04-07T10:28:10.570Z,17.70
2019-04-07T10:30:49.027Z,17.70
2019-04-07T10:33:35.943Z,17.80
2019-04-07T10:36:13.688Z,17.80
2019-04-07T10:38:48.144Z,17.90
2019-04-07T10:41:21.803Z,18.00
2019-04-07T10:43:55.800Z,18.00
2019-04-07T10:46:28.360Z,17.90
2019-04-07T10:49:05.804Z,18.00
2019-04-07T10:51:53.379Z,18.10
2019-04-07T10:54:25.122Z,18.20
2019-04-07T10:57:02.214Z,18.40
2019-04-07T10:59:43.226Z,18.40
2019-04-07T11:02:14.500Z,18.50
2019-04-07T11:04:46.182Z,18.50
2019-04-07T11:07:18.632Z,18.50
2019-04-07T11:10:06.714Z,18.60
2019-04-07T11:12:49.598Z,18.70
2019-04-07T11:15:29.657Z,18.80
2019-04-07T11:18:17.485Z,18.90
2019-04-07T11:21:04.835Z,18.90
2019-04-07T11:23:45.137Z,18.90
2019-04-07T11:26:25.619Z,19.00
2019-04-07T11:28:56.879Z,19.10
2019-04-07T11:31:36.933Z,19.10
2019-04-07T11:34:17.458Z,19.10
2019-04-07T11:36:48.651Z,19.30
2019-04-07T11:39:19.984Z,19.40
2019-04-07T11:41:51.484Z,19.40
2019-04-07T11:44:22.898Z,19.40
2019-04-07T11:47:00.459Z,19.60
2019-04-07T11:49:46.285Z,19.70
2019-04-07T11:52:23.567Z,19.80
2019-04-07T11:55:00.917Z,19.70
2019-04-07T11:57:43.310Z,19.90
2019-04-07T12:00:26.970Z,20.10
2019-04-07T12:03:14.928Z,20.50
2019-04-07T12:05:58.124Z,20.60
2019-04-07T12:08:35.887Z,20.80
2019-04-07T12:11:07.225Z,20.80
2019-04-07T12:13:56.321Z,20.80
2019-04-07T12:16:29.294Z,21.00
2019-04-07T12:19:03.356Z,21.10
2019-04-07T12:21:51.197Z,21.10
2019-04-07T12:24:25.930Z,21.20
2019-04-07T12:26:54.950Z,21.50
2019-04-07T12:29:27.081Z,21.80
2019-04-07T12:31:58.114Z,22.00
2019-04-07T12:34:44.019Z,21.80
2019-04-07T12:37:14.314Z,22.00
2019-04-07T12:39:52.232Z,22.10
2019-04-07T12:42:35.701Z,22.20
2019-04-07T12:45:20.634Z,22.20
2019-04-07T12:47:58.268Z,22.10
2019-04-07T12:50:41.357Z,22.30
2019-04-07T12:53:13.574Z,22.30
2019-04-07T12:55:56.977Z,22.30
2019-04-07T12:58:23.434Z,22.30
2019-04-07T13:01:01.368Z,22.50
2019-04-07T13:03:43.382Z,22.50
2019-04-07T13:06:14.593Z,22.60
2019-04-07T13:08:53.668Z,22.80
2019-04-07T13:11:35.762Z,23.10
2019-04-07T13:14:12.033Z,23.10
2019-04-07T13:16:49.173Z,23.10
2019-04-07T13:19:21.378Z,23.30
2019-04-07T13:21:57.296Z,23.60
2019-04-07T13:24:34.088Z,23.80
2019-04-07T13:27:14.010Z,23.80
2019-04-07T13:29:45.580Z,23.80
2019-04-07T13:32:16.540Z,23.80
2019-04-07T13:34:53.278Z,24.30
2019-04-07T13:37:33.222Z,24.40
2019-04-07T13:40:05.083Z,24.00
2019-04-07T13:42:42.910Z,23.50
2019-04-07T13:45:31.261Z,23.30
2019-04-07T13:48:05.929Z,23.40
2019-04-07T13:50:40.567Z,22.70
2019-04-07T13:53:12.172Z,22.40
2019-04-07T13:55:45.764Z,22.20
2019-04-07T13:58:17.210Z,22.50
2019-04-07T14:00:48.355Z,22.90
2019-04-07T14:03:24.102Z,22.50
2019-04-07T14:06:14.322Z,22.10
2019-04-07T14:09:20.162Z,21.90
2019-04-07T14:12:10.568Z,22.00
2019-04-07T14:14:51.168Z,22.60
2019-04-07T14:17:39.994Z,23.40
2019-04-07T14:20:16.962Z,23.50
2019-04-07T14:22:57.722Z,24.00
2019-04-07T14:25:29.920Z,24.80
2019-04-07T14:28:03.625Z,25.00
2019-04-07T14:30:43.414Z,24.60
2019-04-07T14:33:19.843Z,24.60
2019-04-07T14:35:59.713Z,24.00
2019-04-07T14:38:31.200Z,23.30
2019-04-07T14:41:20.654Z,22.70
2019-04-07T14:43:55.451Z,22.40
2019-04-07T14:46:35.973Z,22.30
2019-04-07T14:49:14.123Z,22.00
2019-04-07T14:51:46.076Z,21.90
2019-04-07T14:54:23.026Z,21.90
2019-04-07T14:56:57.428Z,22.10
2019-04-07T14:59:38.345Z,22.20
2019-04-07T15:02:08.272Z,22.30
2019-04-07T15:04:42.981Z,22.30
2019-04-07T15:07:30.702Z,22.20
2019-04-07T15:10:01.611Z,22.00
2019-04-07T15:12:35.942Z,21.70
2019-04-07T15:15:09.907Z,22.00
2019-04-07T15:17:37.869Z,22.90
2019-04-07T15:20:07.616Z,23.20
2019-04-07T15:22:37.794Z,23.30
2019-04-07T15:25:08.956Z,23.70
2019-04-07T15:27:38.542Z,24.20
2019-04-07T15:30:15.317Z,24.80
2019-04-07T15:32:42.741Z,25.10
2019-04-07T15:35:14.321Z,24.70
2019-04-07T15:37:44.521Z,24.30
2019-04-07T15:40:14.097Z,23.80
2019-04-07T15:42:49.273Z,23.50
2019-04-07T15:45:16.167Z,23.30
2019-04-07T15:47:45.547Z,23.50
2019-04-07T15:50:15.889Z,24.10
2019-04-07T15:52:46.994Z,24.20
2019-04-07T15:55:16.820Z,24.20
2019-04-07T15:57:46.235Z,24.00
2019-04-07T16:00:16.976Z,23.90
2019-04-07T16:02:46.315Z,23.80
2019-04-07T16:05:15.918Z,23.60
2019-04-07T16:07:46.593Z,23.40
2019-04-07T16:10:18.697Z,23.30
2019-04-07T16:12:51.096Z,23.00
2019-04-07T16:15:19.467Z,22.70
2019-04-07T16:17:49.104Z,22.30
2019-04-07T16:20:24.758Z,22.00
2019-04-07T16:22:51.877Z,21.70
2019-04-07T16:25:26.193Z,21.50
2019-04-07T16:27:52.554Z,21.30
2019-04-07T16:30:23.393Z,21.20
2019-04-07T16:32:53.591Z,21.10
2019-04-07T16:35:23.015Z,21.00
2019-04-07T16:37:53.181Z,20.90
2019-04-07T16:40:22.814Z,20.80
2019-04-07T16:43:04.626Z,20.60
2019-04-07T16:45:23.234Z,20.40
2019-04-07T16:47:53.050Z,20.30
2019-04-07T16:50:22.977Z,20.20
2019-04-07T16:52:53.216Z,20.10
2019-04-07T16:55:40.205Z,20.00
2019-04-07T16:58:11.694Z,20.00
2019-04-07T17:00:41.892Z,19.90
2019-04-07T17:03:11.430Z,19.90
2019-04-07T17:05:40.698Z,19.80
2019-04-07T17:08:10.309Z,19.80
2019-04-07T17:10:39.602Z,19.80
2019-04-07T17:13:16.988Z,19.60
2019-04-07T17:15:41.606Z,19.60
2019-04-07T17:18:33.327Z,19.50
2019-04-07T17:21:06.430Z,19.50
2019-04-07T17:23:33.867Z,19.50
2019-04-07T17:26:05.687Z,19.40
2019-04-07T17:28:35.752Z,19.40
2019-04-07T17:31:05.975Z,19.40
2019-04-07T17:33:37.183Z,19.20
2019-04-07T17:36:07.922Z,19.20
2019-04-07T17:38:56.819Z,19.10
2019-04-07T17:41:26.087Z,19.00
2019-04-07T17:44:16.829Z,19.00
2019-04-07T17:46:49.198Z,18.90
2019-04-07T17:49:36.832Z,18.80
2019-04-07T17:52:17.578Z,18.80
2019-04-07T17:55:05.019Z,18.60
2019-04-07T17:57:39.699Z,18.60
2019-04-07T18:00:18.060Z,18.50
2019-04-07T18:03:06.484Z,18.50
2019-04-07T18:05:41.126Z,18.50
2019-04-07T18:08:29.415Z,18.40
2019-04-07T18:11:00.961Z,18.30
2019-04-07T18:13:43.448Z,18.20
2019-04-07T18:16:06.942Z,18.10
2019-04-07T18:18:56.224Z,18.10
2019-04-07T18:21:29.170Z,18.00
2019-04-07T18:24:16.838Z,18.00
2019-04-07T18:26:52.036Z,17.90
2019-04-07T18:29:27.832Z,17.80
2019-04-07T18:32:00.113Z,17.80
2019-04-07T18:34:32.314Z,17.70
2019-04-07T18:37:06.077Z,17.70
2019-04-07T18:39:39.743Z,17.60
2019-04-07T18:42:24.132Z,17.60
2019-04-07T18:44:55.416Z,17.50
2019-04-07T18:47:30.303Z,17.50
2019-04-07T18:50:13.325Z,17.40
2019-04-07T18:52:45.699Z,17.40
2019-04-07T18:55:18.182Z,17.30
2019-04-07T18:58:10.570Z,17.20
2019-04-07T19:00:41.400Z,17.20
2019-04-07T19:03:18.124Z,17.10
2019-04-07T19:05:57.545Z,17.10
2019-04-07T19:08:28.843Z,17.10
2019-04-07T19:11:15.530Z,17.00
2019-04-07T19:13:44.259Z,17.00
2019-04-07T19:16:21.420Z,17.00
2019-04-07T19:18:52.706Z,17.00
2019-04-07T19:21:45.099Z,17.00
2019-04-07T19:24:35.357Z,16.90
2019-04-07T19:27:13.529Z,16.90
2019-04-07T19:29:41.249Z,16.90
2019-04-07T19:32:23.516Z,16.80
2019-04-07T19:35:02.661Z,16.80
2019-04-07T19:37:42.244Z,16.70
2019-04-07T19:40:26.767Z,16.70
2019-04-07T19:43:13.331Z,16.70
2019-04-07T19:46:00.910Z,16.60
2019-04-07T19:48:39.094Z,16.60
2019-04-07T19:51:13.219Z,16.60
2019-04-07T19:53:47.161Z,16.50
2019-04-07T19:56:35.200Z,16.50
2019-04-07T19:59:12.754Z,16.40
2019-04-07T20:01:53.174Z,16.30
2019-04-07T20:04:44.035Z,16.20
2019-04-07T20:07:13.558Z,16.10
2019-04-07T20:09:53.473Z,16.10
2019-04-07T20:12:27.246Z,16.10
2019-04-07T20:15:16.363Z,16.00
2019-04-07T20:17:53.372Z,16.00
2019-04-07T20:20:38.511Z,16.00
2019-04-07T20:23:17.446Z,15.90
2019-04-07T20:26:05.871Z,16.00
2019-04-07T20:28:46.446Z,15.90
2019-04-07T20:31:27.775Z,15.90
2019-04-07T20:34:02.233Z,15.90
2019-04-07T20:36:31.615Z,15.90
2019-04-07T20:39:11.579Z,15.80
2019-04-07T20:41:43.650Z,15.80
2019-04-07T20:44:28.611Z,15.90
2019-04-07T20:47:01.715Z,15.80
2019-04-07T20:49:41.836Z,15.80
2019-04-07T20:52:22.225Z,15.90
2019-04-07T20:54:56.277Z,15.90
2019-04-07T20:57:42.746Z,15.90
2019-04-07T21:00:30.710Z,15.90
2019-04-07T21:03:23.685Z,15.90
2019-04-07T21:05:55.936Z,15.90
2019-04-07T21:08:30.206Z,15.90
2019-04-07T21:10:59.262Z,15.90
2019-04-07T21:13:47.966Z,15.90
2019-04-07T21:16:23.509Z,15.90
2019-04-07T21:18:51.826Z,15.90
2019-04-07T21:21:29.217Z,15.90
2019-04-07T21:24:18.890Z,15.90
2019-04-07T21:27:05.738Z,15.90
2019-04-07T21:29:44.542Z,15.90
2019-04-07T21:32:18.187Z,15.90
2019-04-07T21:35:04.431Z,15.80
2019-04-07T21:37:45.074Z,15.80
2019-04-07T21:40:32.047Z,15.80
2019-04-07T21:43:15.311Z,15.70
2019-04-07T21:45:53.351Z,15.70
2019-04-07T21:48:30.673Z,15.70
2019-04-07T21:51:15.383Z,15.60
2019-04-07T21:53:44.354Z,15.50
2019-04-07T21:56:15.665Z,15.50
2019-04-07T21:58:47.455Z,15.50
2019-04-07T22:01:18.732Z,15.40
2019-04-07T22:03:52.939Z,15.30
2019-04-07T22:06:29.512Z,15.20
2019-04-07T22:09:15.924Z,15.10
2019-04-07T22:11:45.049Z,15.00
2019-04-07T22:14:15.126Z,15.10
2019-04-07T22:16:44.922Z,15.10
2019-04-07T22:19:16.264Z,15.10
2019-04-07T22:21:45.249Z,15.10
2019-04-07T22:24:15.247Z,15.10
2019-04-07T22:26:49.132Z,15.10
2019-04-07T22:29:16.168Z,15.00
2019-04-07T22:31:47.861Z,15.00
2019-04-07T22:34:17.344Z,15.00
2019-04-07T22:36:47.899Z,14.90
2019-04-07T22:39:18.370Z,14.90
2019-04-07T22:41:48.361Z,14.90
2019-04-07T22:44:20.427Z,14.90
2019-04-07T22:46:51.921Z,15.00
2019-04-07T22:49:20.312Z,14.90
2019-04-07T22:51:50.750Z,14.90
2019-04-07T22:54:20.538Z,14.80
2019-04-07T22:56:50.031Z,14.80
2019-04-07T22:59:19.641Z,14.80
2019-04-07T23:01:49.376Z,14.80
2019-04-07T23:04:18.747Z,14.70
2019-04-07T23:06:48.133Z,14.70
2019-04-07T23:09:17.795Z,14.70
2019-04-07T23:11:48.229Z,14.70
2019-04-07T23:14:17.854Z,14.70
2019-04-07T23:16:47.290Z,14.70
2019-04-07T23:19:16.581Z,14.70
2019-04-07T23:21:45.954Z,14.60
2019-04-07T23:24:15.269Z,14.60
2019-04-07T23:26:44.860Z,14.60
2019-04-07T23:29:14.356Z,14.60
2019-04-07T23:31:44.099Z,14.60
2019-04-07T23:34:14.729Z,14.60
2019-04-07T23:36:44.027Z,14.60
2019-04-07T23:39:13.295Z,14.60
2019-04-07T23:41:43.482Z,14.60
2019-04-07T23:44:13.013Z,14.60
2019-04-07T23:46:42.254Z,14.60
2019-04-07T23:49:11.974Z,14.60
2019-04-07T23:51:41.479Z,14.60
2019-04-07T23:54:12.112Z,14.50
2019-04-07T23:56:43.639Z,14.50
2019-04-07T23:59:14.770Z,14.50
